createdAt,value
2019-03-22T00:00:14.807Z,62.91
2019-03-22T00:01:14.822Z,63.61
2019-03-22T00:02:14.791Z,63.44
2019-03-22T00:03:14.806Z,63.49
2019-03-22T00:04:14.902Z,62.83
2019-03-22T00:05:14.773Z,62.73
2019-03-22T00:06:15.003Z,63.58
2019-03-22T00:07:14.823Z,63.73
2019-03-22T00:08:14.811Z,64.06
2019-03-22T00:09:14.784Z,64.31
2019-03-22T00:10:14.788Z,64.46
2019-03-22T00:11:14.788Z,64.19
2019-03-22T00:12:14.772Z,64.33
2019-03-22T00:13:14.767Z,63.8
2019-03-22T00:14:14.797Z,63.46
2019-03-22T00:15:14.771Z,63.3
2019-03-22T00:16:14.783Z,63.86
2019-03-22T00:17:14.775Z,63.62
2019-03-22T00:18:14.822Z,63.92
2019-03-22T00:19:14.799Z,63.43
2019-03-22T00:20:14.757Z,63.74
2019-03-22T00:21:14.773Z,63.79
2019-03-22T00:22:14.785Z,63.64
2019-03-22T00:23:14.826Z,63.24
2019-03-22T00:24:14.779Z,63.17
2019-03-22T00:25:14.784Z,63.33
2019-03-22T00:26:14.769Z,63.45
2019-03-22T00:27:17.142Z,63.83
2019-03-22T00:28:14.959Z,63.89
2019-03-22T00:29:14.788Z,64.57
2019-03-22T00:30:14.749Z,64.53
2019-03-22T00:31:14.757Z,64.28
2019-03-22T00:32:14.756Z,64.57
2019-03-22T00:33:14.761Z,64.09
2019-03-22T00:34:14.762Z,64.51
2019-03-22T00:35:14.872Z,64.92
2019-03-22T00:36:14.742Z,65.15
2019-03-22T00:37:14.746Z,65.31
2019-03-22T00:38:14.770Z,65.72
2019-03-22T00:39:14.779Z,65.6
2019-03-22T00:40:14.755Z,66.16
2019-03-22T00:41:14.776Z,66.15
2019-03-22T00:42:14.747Z,66.07
2019-03-22T00:43:14.734Z,66.27
2019-03-22T00:44:14.787Z,66.56
2019-03-22T00:45:14.787Z,66.61
2019-03-22T00:46:14.825Z,66.74
2019-03-22T00:47:14.726Z,66.81
2019-03-22T00:48:14.738Z,66.7
2019-03-22T00:49:14.849Z,66.84
2019-03-22T00:50:14.752Z,67.03
2019-03-22T00:51:14.732Z,67.24
2019-03-22T00:52:14.716Z,67.01
2019-03-22T00:53:14.790Z,67.21
2019-03-22T00:54:14.753Z,67.49
2019-03-22T00:55:14.765Z,67.48
2019-03-22T00:56:14.724Z,67.95
2019-03-22T00:57:14.727Z,67.91
2019-03-22T00:58:14.707Z,67.78
2019-03-22T00:59:14.730Z,68.13
2019-03-22T01:00:14.738Z,68.19
2019-03-22T01:01:14.760Z,67.79
2019-03-22T01:02:14.735Z,67.35
2019-03-22T01:03:14.786Z,67.42
2019-03-22T01:04:14.792Z,67.35
2019-03-22T01:05:14.709Z,67.44
2019-03-22T01:06:14.686Z,67.26
2019-03-22T01:07:14.762Z,67.37
2019-03-22T01:08:14.716Z,67.25
2019-03-22T01:09:14.706Z,67.32
2019-03-22T01:10:14.733Z,67.43
2019-03-22T01:11:16.557Z,67.62
2019-03-22T01:12:14.751Z,67.66
2019-03-22T01:13:14.751Z,68.05
2019-03-22T01:14:14.705Z,67.84
2019-03-22T01:15:14.740Z,67.96
2019-03-22T01:16:14.695Z,68.38
2019-03-22T01:17:14.702Z,68.2
2019-03-22T01:18:14.682Z,68.37
2019-03-22T01:19:14.680Z,68.54
2019-03-22T01:20:14.674Z,68.44
2019-03-22T01:21:14.700Z,68.39
2019-03-22T01:22:14.693Z,67.73
2019-03-22T01:23:14.713Z,68.35
2019-03-22T01:24:14.691Z,67.71
2019-03-22T01:25:14.673Z,68.18
2019-03-22T01:26:14.708Z,67.88
2019-03-22T01:27:14.738Z,68.01
2019-03-22T01:28:14.691Z,67.35
2019-03-22T01:29:14.660Z,67.47
2019-03-22T01:30:14.676Z,67.48
2019-03-22T01:31:14.662Z,68
2019-03-22T01:32:14.826Z,68
2019-03-22T01:33:14.676Z,67.65
2019-03-22T01:34:14.651Z,67.17
2019-03-22T01:35:14.695Z,67.38
2019-03-22T01:36:14.654Z,67.64
2019-03-22T01:37:14.673Z,68.38
2019-03-22T01:38:14.659Z,68.35
2019-03-22T01:39:14.662Z,68.34
2019-03-22T01:40:14.710Z,68.33
2019-03-22T01:41:14.669Z,68.22
2019-03-22T01:42:14.652Z,67.6
2019-03-22T01:43:14.661Z,68.07
2019-03-22T01:44:14.727Z,67.37
2019-03-22T01:45:14.672Z,67.56
2019-03-22T01:46:14.661Z,68.13
2019-03-22T01:47:14.648Z,68.62
2019-03-22T01:48:14.668Z,67.69
2019-03-22T01:49:14.670Z,68.28
2019-03-22T01:50:14.678Z,67.77
2019-03-22T01:51:14.647Z,68.95
2019-03-22T01:52:14.618Z,68.13
2019-03-22T01:53:14.677Z,68.23
2019-03-22T01:54:14.662Z,68.74
2019-03-22T01:55:14.657Z,69.12
2019-03-22T01:56:14.668Z,68.82
2019-03-22T01:57:14.629Z,68.79
2019-03-22T01:58:14.651Z,68.83
2019-03-22T01:59:14.629Z,68.55
2019-03-22T02:00:14.633Z,69.18
2019-03-22T02:01:14.625Z,68.22
2019-03-22T02:02:14.619Z,69.18
2019-03-22T02:03:14.693Z,68.61
2019-03-22T02:04:14.679Z,68.27
2019-03-22T02:05:14.639Z,67.83
2019-03-22T02:06:14.616Z,68.74
2019-03-22T02:07:14.674Z,68.98
2019-03-22T02:08:14.640Z,68.73
2019-03-22T02:09:14.671Z,68.81
2019-03-22T02:10:14.626Z,69.06
2019-03-22T02:11:14.607Z,69.17
2019-03-22T02:12:14.677Z,69.09
2019-03-22T02:13:14.661Z,69.21
2019-03-22T02:14:14.611Z,69.59
2019-03-22T02:15:14.638Z,70.03
2019-03-22T02:16:14.981Z,69.96
2019-03-22T02:17:14.608Z,69.46
2019-03-22T02:18:14.615Z,69.72
2019-03-22T02:19:14.609Z,69.74
2019-03-22T02:20:14.601Z,69.8
2019-03-22T02:21:14.601Z,69.84
2019-03-22T02:22:14.629Z,69.89
2019-03-22T02:23:14.601Z,69.99
2019-03-22T02:24:14.596Z,70
2019-03-22T02:25:14.592Z,70.13
2019-03-22T02:26:14.609Z,70.32
2019-03-22T02:27:14.608Z,70.93
2019-03-22T02:28:14.635Z,70.77
2019-03-22T02:29:14.689Z,70.44
2019-03-22T02:30:14.659Z,70.78
2019-03-22T02:31:14.579Z,70.48
2019-03-22T02:32:14.577Z,70.39
2019-03-22T02:33:14.616Z,70.01
2019-03-22T02:34:14.621Z,70.04
2019-03-22T02:35:29.907Z,69.47
2019-03-22T02:36:14.610Z,69.39
2019-03-22T02:37:14.698Z,70.07
2019-03-22T02:38:14.641Z,69.98
2019-03-22T02:39:14.860Z,70.07
2019-03-22T02:40:14.681Z,70
2019-03-22T02:41:14.615Z,69.95
2019-03-22T02:42:14.618Z,70.57
2019-03-22T02:43:14.574Z,70.75
2019-03-22T02:44:14.606Z,70.88
2019-03-22T02:45:14.694Z,71.06
2019-03-22T02:46:15.980Z,70.89
2019-03-22T02:47:14.614Z,70.47
2019-03-22T02:48:14.600Z,70.56
2019-03-22T02:49:14.569Z,70.75
2019-03-22T02:50:20.829Z,70.6
2019-03-22T02:51:14.584Z,70.79
2019-03-22T02:52:14.625Z,71.09
2019-03-22T02:53:14.597Z,71.03
2019-03-22T02:54:14.591Z,70.97
2019-03-22T02:55:14.571Z,71.32
2019-03-22T02:56:15.249Z,71.29
2019-03-22T02:57:14.579Z,71.22
2019-03-22T02:58:21.695Z,70.96
2019-03-22T02:59:14.959Z,71.33
2019-03-22T03:00:14.617Z,71.26
2019-03-22T03:01:14.531Z,71.13
2019-03-22T03:02:14.583Z,71.28
2019-03-22T03:03:14.566Z,70.88
2019-03-22T03:04:14.572Z,71.34
2019-03-22T03:05:14.561Z,71.68
2019-03-22T03:06:14.546Z,70.84
2019-03-22T03:07:14.547Z,71.1
2019-03-22T03:08:14.595Z,71.53
2019-03-22T03:09:14.570Z,71.43
2019-03-22T03:10:14.625Z,71.12
2019-03-22T03:11:14.506Z,70.82
2019-03-22T03:12:14.545Z,70.63
2019-03-22T03:13:14.600Z,70.11
2019-03-22T03:14:14.544Z,71.09
2019-03-22T03:15:14.552Z,71.55
2019-03-22T03:16:14.567Z,71.55
2019-03-22T03:17:14.526Z,71.48
2019-03-22T03:18:14.571Z,71.8
2019-03-22T03:19:14.541Z,71.25
2019-03-22T03:20:14.615Z,71.66
2019-03-22T03:21:14.604Z,71.38
2019-03-22T03:22:14.529Z,71.57
2019-03-22T03:23:14.554Z,71.59
2019-03-22T03:24:14.544Z,71.55
2019-03-22T03:25:15.886Z,71.65
2019-03-22T03:26:14.593Z,71.36
2019-03-22T03:27:14.505Z,71.17
2019-03-22T03:28:14.495Z,71.78
2019-03-22T03:29:14.560Z,71.68
2019-03-22T03:30:14.562Z,72.05
2019-03-22T03:31:14.552Z,72.58
2019-03-22T03:32:14.522Z,72.75
2019-03-22T03:33:14.568Z,72.77
2019-03-22T03:34:14.568Z,73.06
2019-03-22T03:35:14.760Z,73.49
2019-03-22T03:36:14.518Z,73.12
2019-03-22T03:37:14.557Z,73.07
2019-03-22T03:38:14.610Z,73
2019-03-22T03:39:14.518Z,73.26
2019-03-22T03:40:14.609Z,72.6
2019-03-22T03:41:14.572Z,73.12
2019-03-22T03:42:14.537Z,73.11
2019-03-22T03:43:14.639Z,72.74
2019-03-22T03:44:14.546Z,72.34
2019-03-22T03:45:14.590Z,72.32
2019-03-22T03:46:14.541Z,72.47
2019-03-22T03:47:14.525Z,72.08
2019-03-22T03:48:14.555Z,71.9
2019-03-22T03:49:14.504Z,72.41
2019-03-22T03:50:14.513Z,72.68
2019-03-22T03:51:14.469Z,72.39
2019-03-22T03:52:14.485Z,72.82
2019-03-22T03:53:14.497Z,72.38
2019-03-22T03:54:14.458Z,72.71
2019-03-22T03:55:14.516Z,72.6
2019-03-22T03:56:14.501Z,72.1
2019-03-22T03:57:14.486Z,72.71
2019-03-22T03:58:14.472Z,72.48
2019-03-22T03:59:14.466Z,72.61
2019-03-22T04:00:14.506Z,72.64
2019-03-22T04:01:14.467Z,72.07
2019-03-22T04:02:14.492Z,72.7
2019-03-22T04:03:15.349Z,73.1
2019-03-22T04:04:14.883Z,73.35
2019-03-22T04:05:15.074Z,73.51
2019-03-22T04:06:14.519Z,73.33
2019-03-22T04:07:14.497Z,72.69
2019-03-22T04:08:14.479Z,73.31
2019-03-22T04:09:14.486Z,72.95
2019-03-22T04:10:14.447Z,72.96
2019-03-22T04:11:14.490Z,72.43
2019-03-22T04:12:14.606Z,72.34
2019-03-22T04:13:14.472Z,72.69
2019-03-22T04:14:14.498Z,72.99
2019-03-22T04:15:14.450Z,72.53
2019-03-22T04:16:14.508Z,72.85
2019-03-22T04:17:14.701Z,72.8
2019-03-22T04:18:14.471Z,72.97
2019-03-22T04:19:14.461Z,73.08
2019-03-22T04:20:14.419Z,72.74
2019-03-22T04:21:14.420Z,72.92
2019-03-22T04:22:14.485Z,72.46
2019-03-22T04:23:14.465Z,73.4
2019-03-22T04:24:14.449Z,73.08
2019-03-22T04:25:14.486Z,73.42
2019-03-22T04:26:14.787Z,72.87
2019-03-22T04:27:14.454Z,73.23
2019-03-22T04:28:14.453Z,73.31
2019-03-22T04:29:14.421Z,73.46
2019-03-22T04:30:14.458Z,73.54
2019-03-22T04:31:14.405Z,73.58
2019-03-22T04:32:14.480Z,73.31
2019-03-22T04:33:14.443Z,73.76
2019-03-22T04:34:14.395Z,73.97
2019-03-22T04:35:14.455Z,73.94
2019-03-22T04:36:14.424Z,73.99
2019-03-22T04:37:14.421Z,73.68
2019-03-22T04:38:14.398Z,73.39
2019-03-22T04:39:14.401Z,73.5
2019-03-22T04:40:14.460Z,74.06
2019-03-22T04:41:14.386Z,73.39
2019-03-22T04:42:14.422Z,72.72
2019-03-22T04:43:14.436Z,73.84
2019-03-22T04:44:14.392Z,73.55
2019-03-22T04:45:14.389Z,73.63
2019-03-22T04:46:14.388Z,72.83
2019-03-22T04:47:14.382Z,73.49
2019-03-22T04:48:14.540Z,73.24
2019-03-22T04:49:14.386Z,72.45
2019-03-22T04:50:14.403Z,72.23
2019-03-22T04:51:14.372Z,72.44
2019-03-22T04:52:14.373Z,72.27
2019-03-22T04:53:14.528Z,71.82
2019-03-22T04:54:14.396Z,72.49
2019-03-22T04:55:14.377Z,71.83
2019-03-22T04:56:14.417Z,71.89
2019-03-22T04:57:14.401Z,72.31
2019-03-22T04:58:14.419Z,71.97
2019-03-22T04:59:19.853Z,72.11
2019-03-22T05:00:14.438Z,71.87
2019-03-22T05:01:14.397Z,73.4
2019-03-22T05:02:14.365Z,73.17
2019-03-22T05:03:14.420Z,72.06
2019-03-22T05:04:14.382Z,73.02
2019-03-22T05:05:14.398Z,73.24
2019-03-22T05:06:14.372Z,73.86
2019-03-22T05:07:14.370Z,74.3
2019-03-22T05:08:14.360Z,73.39
2019-03-22T05:09:14.344Z,74.23
2019-03-22T05:10:14.434Z,74.3
2019-03-22T05:11:14.358Z,74.23
2019-03-22T05:12:14.442Z,73.93
2019-03-22T05:13:14.362Z,74.01
2019-03-22T05:14:14.364Z,74.39
2019-03-22T05:15:14.335Z,74.16
2019-03-22T05:16:14.335Z,74.14
2019-03-22T05:17:14.386Z,73.39
2019-03-22T05:18:14.385Z,72.88
2019-03-22T05:19:14.476Z,73.02
2019-03-22T05:20:14.329Z,72.95
2019-03-22T05:21:14.412Z,72.32
2019-03-22T05:22:14.333Z,72.47
2019-03-22T05:23:14.380Z,72.18
2019-03-22T05:24:14.424Z,72.54
2019-03-22T05:25:14.330Z,72.73
2019-03-22T05:26:14.407Z,73.89
2019-03-22T05:27:14.363Z,73.2
2019-03-22T05:28:14.356Z,74.21
2019-03-22T05:29:14.326Z,74.62
2019-03-22T05:30:14.332Z,74.58
2019-03-22T05:31:14.334Z,75.1
2019-03-22T05:32:14.719Z,75.13
2019-03-22T05:33:14.335Z,75.22
2019-03-22T05:34:14.373Z,74.85
2019-03-22T05:35:14.355Z,74.1
2019-03-22T05:36:14.361Z,74.41
2019-03-22T05:37:14.384Z,73.71
2019-03-22T05:38:14.318Z,73.59
2019-03-22T05:39:14.338Z,73.18
2019-03-22T05:40:14.285Z,72.97
2019-03-22T05:41:14.315Z,72.76
2019-03-22T05:42:14.315Z,72.6
2019-03-22T05:43:14.329Z,72.34
2019-03-22T05:44:14.284Z,72.55
2019-03-22T05:45:14.321Z,72.9
2019-03-22T05:46:14.311Z,73.05
2019-03-22T05:47:14.299Z,73.33
2019-03-22T05:48:14.310Z,73.2
2019-03-22T05:49:14.295Z,73.09
2019-03-22T05:50:14.375Z,73.47
2019-03-22T05:51:14.321Z,75.13
2019-03-22T05:52:14.348Z,75.62
2019-03-22T05:53:14.756Z,75.45
2019-03-22T05:54:14.342Z,74.65
2019-03-22T05:55:14.358Z,74.26
2019-03-22T05:56:14.272Z,73.79
2019-03-22T05:57:14.332Z,74.71
2019-03-22T05:58:14.277Z,73.95
2019-03-22T05:59:14.296Z,73.79
2019-03-22T06:00:14.321Z,73.83
2019-03-22T06:01:14.305Z,73.55
2019-03-22T06:02:14.291Z,73.35
2019-03-22T06:03:14.284Z,73.09
2019-03-22T06:04:14.270Z,73.09
2019-03-22T06:05:14.262Z,73.05
2019-03-22T06:06:14.292Z,73.89
2019-03-22T06:07:14.262Z,75.96
2019-03-22T06:08:14.290Z,76.35
2019-03-22T06:09:14.327Z,76.17
2019-03-22T06:10:14.276Z,76.41
2019-03-22T06:11:14.264Z,75.06
2019-03-22T06:12:14.256Z,75.52
2019-03-22T06:13:14.282Z,74.81
2019-03-22T06:14:14.286Z,74.11
2019-03-22T06:15:14.482Z,74.35
2019-03-22T06:16:14.269Z,73.91
2019-03-22T06:17:14.265Z,74.24
2019-03-22T06:18:14.304Z,74.31
2019-03-22T06:19:14.284Z,75.2
2019-03-22T06:20:14.299Z,74.44
2019-03-22T06:21:14.236Z,75.19
2019-03-22T06:22:14.253Z,75.46
2019-03-22T06:23:14.289Z,75.22
2019-03-22T06:24:14.280Z,74.6
2019-03-22T06:25:14.313Z,74.82
2019-03-22T06:26:15.458Z,75.34
2019-03-22T06:27:14.378Z,75.49
2019-03-22T06:28:14.295Z,76.26
2019-03-22T06:29:14.409Z,76.14
2019-03-22T06:30:14.324Z,75.75
2019-03-22T06:31:14.288Z,76.32
2019-03-22T06:32:14.265Z,76.38
2019-03-22T06:33:14.287Z,75.13
2019-03-22T06:34:14.283Z,76.24
2019-03-22T06:35:14.230Z,75.43
2019-03-22T06:36:14.270Z,75.73
2019-03-22T06:37:14.296Z,75.34
2019-03-22T06:38:14.251Z,75.04
2019-03-22T06:39:14.246Z,75.62
2019-03-22T06:40:14.256Z,75.88
2019-03-22T06:41:14.221Z,75.64
2019-03-22T06:42:14.206Z,75.65
2019-03-22T06:43:14.303Z,75.67
2019-03-22T06:44:14.286Z,75.18
2019-03-22T06:45:14.409Z,75.06
2019-03-22T06:46:14.263Z,75.14
2019-03-22T06:47:14.244Z,75.18
2019-03-22T06:48:14.389Z,75.73
2019-03-22T06:49:14.344Z,75.17
2019-03-22T06:50:14.281Z,75.15
2019-03-22T06:51:14.286Z,75.25
2019-03-22T06:52:14.286Z,74.66
2019-03-22T06:53:14.233Z,74.78
2019-03-22T06:54:14.227Z,74.51
2019-03-22T06:55:14.212Z,74.07
2019-03-22T06:56:14.188Z,74.52
2019-03-22T06:57:14.323Z,74.01
2019-03-22T06:58:14.730Z,73.64
2019-03-22T06:59:16.049Z,74.28
2019-03-22T07:00:14.270Z,74.12
2019-03-22T07:01:14.299Z,74.14
2019-03-22T07:02:14.375Z,73.65
2019-03-22T07:03:14.176Z,75.37
2019-03-22T07:04:14.262Z,75.5
2019-03-22T07:05:14.217Z,75.37
2019-03-22T07:06:14.247Z,74.75
2019-03-22T07:07:14.265Z,74.63
2019-03-22T07:08:14.192Z,74.45
2019-03-22T07:09:14.183Z,74.65
2019-03-22T07:10:14.227Z,74.6
2019-03-22T07:11:14.180Z,75.03
2019-03-22T07:12:14.227Z,75.22
2019-03-22T07:13:14.280Z,75.15
2019-03-22T07:14:14.201Z,75.31
2019-03-22T07:15:14.224Z,74.92
2019-03-22T07:16:14.179Z,74.77
2019-03-22T07:17:14.180Z,74.72
2019-03-22T07:18:14.237Z,74.94
2019-03-22T07:19:14.267Z,74.97
2019-03-22T07:20:14.415Z,75.05
2019-03-22T07:21:14.220Z,75.13
2019-03-22T07:22:14.314Z,74.86
2019-03-22T07:23:14.163Z,73.94
2019-03-22T07:24:14.182Z,73.97
2019-03-22T07:25:14.207Z,74.14
2019-03-22T07:26:14.158Z,73.95
2019-03-22T07:27:14.152Z,73.64
2019-03-22T07:28:14.233Z,73.26
2019-03-22T07:29:14.209Z,73.37
2019-03-22T07:30:19.608Z,73.7
2019-03-22T07:31:14.177Z,73.59
2019-03-22T07:32:14.193Z,73.66
2019-03-22T07:33:14.169Z,73.57
2019-03-22T07:34:14.188Z,73.11
2019-03-22T07:35:14.185Z,72.77
2019-03-22T07:36:14.137Z,72.62
2019-03-22T07:37:14.185Z,72.58
2019-03-22T07:38:14.203Z,71.68
2019-03-22T07:39:14.164Z,71.77
2019-03-22T07:40:14.243Z,72.06
2019-03-22T07:41:14.549Z,71.75
2019-03-22T07:42:14.163Z,71.02
2019-03-22T07:43:14.169Z,71.02
2019-03-22T07:44:14.150Z,70.98
2019-03-22T07:45:14.140Z,70.85
2019-03-22T07:46:15.985Z,71.16
2019-03-22T07:47:14.143Z,71
2019-03-22T07:48:14.148Z,71.32
2019-03-22T07:49:14.113Z,70.65
2019-03-22T07:50:14.120Z,70.32
2019-03-22T07:51:14.199Z,70.38
2019-03-22T07:52:14.176Z,70.37
2019-03-22T07:53:14.146Z,70.23
2019-03-22T07:54:14.159Z,70.29
2019-03-22T07:55:14.159Z,69.91
2019-03-22T07:56:14.146Z,69.43
2019-03-22T07:57:14.128Z,69.06
2019-03-22T07:58:14.112Z,67.49
2019-03-22T07:59:14.111Z,65.72
2019-03-22T08:00:14.098Z,65.67
2019-03-22T08:01:14.130Z,65.87
2019-03-22T08:02:14.211Z,65.53
2019-03-22T08:03:14.395Z,64.78
2019-03-22T08:04:14.993Z,63.68
2019-03-22T08:05:14.119Z,64.33
2019-03-22T08:06:14.132Z,63.98
2019-03-22T08:07:14.329Z,63.49
2019-03-22T08:08:14.117Z,62.61
2019-03-22T08:09:14.103Z,62.57
2019-03-22T08:10:14.121Z,61.83
2019-03-22T08:11:14.127Z,60.55
2019-03-22T08:12:14.228Z,59.92
2019-03-22T08:13:14.181Z,59.93
2019-03-22T08:14:16.757Z,59.28
2019-03-22T08:15:14.078Z,58.93
2019-03-22T08:16:14.106Z,59.32
2019-03-22T08:17:14.146Z,59.21
2019-03-22T08:18:14.069Z,58.86
2019-03-22T08:19:14.095Z,57.94
2019-03-22T08:20:14.180Z,57.6
2019-03-22T08:21:14.107Z,57.84
2019-03-22T08:22:14.111Z,57.63
2019-03-22T08:23:14.203Z,57.56
2019-03-22T08:24:14.472Z,57.31
2019-03-22T08:25:14.251Z,57.33
2019-03-22T08:26:14.091Z,57.01
2019-03-22T08:27:14.100Z,56.81
2019-03-22T08:28:14.321Z,57.2
2019-03-22T08:29:14.138Z,56.52
2019-03-22T08:30:14.192Z,56.48
2019-03-22T08:31:14.164Z,56.53
2019-03-22T08:32:14.114Z,56.72
2019-03-22T08:33:14.146Z,56.55
2019-03-22T08:34:14.129Z,56.12
2019-03-22T08:35:14.186Z,55.5
2019-03-22T08:36:15.302Z,55.36
2019-03-22T08:37:14.143Z,55.02
2019-03-22T08:38:14.194Z,55.14
2019-03-22T08:39:14.209Z,54.42
2019-03-22T08:40:14.083Z,54.51
2019-03-22T08:41:14.103Z,54.12
2019-03-22T08:42:14.108Z,54.38
2019-03-22T08:43:14.105Z,54.12
2019-03-22T08:44:14.171Z,53.7
2019-03-22T08:45:14.106Z,53.6
2019-03-22T08:46:14.236Z,53.59
2019-03-22T08:47:14.159Z,53.52
2019-03-22T08:48:14.069Z,53.67
2019-03-22T08:49:14.378Z,53.58
2019-03-22T08:50:14.059Z,53.1
2019-03-22T08:51:14.091Z,52.74
2019-03-22T08:52:14.093Z,53.06
2019-03-22T08:53:14.056Z,52.64
2019-03-22T08:54:14.116Z,53.26
2019-03-22T08:55:14.103Z,52.88
2019-03-22T08:56:14.172Z,53.4
2019-03-22T08:57:14.067Z,53.21
2019-03-22T08:58:14.076Z,53.05
2019-03-22T08:59:14.109Z,53.09
2019-03-22T09:00:14.124Z,52.82
2019-03-22T09:01:14.080Z,52.27
2019-03-22T09:02:14.080Z,51.64
2019-03-22T09:03:14.022Z,52.73
2019-03-22T09:04:14.042Z,52.64
2019-03-22T09:05:14.023Z,52.52
2019-03-22T09:06:14.023Z,52.05
2019-03-22T09:07:14.167Z,52.31
2019-03-22T09:08:16.575Z,52.01
2019-03-22T09:09:14.095Z,52.57
2019-03-22T09:10:14.046Z,52.48
2019-03-22T09:11:14.119Z,52.02
2019-03-22T09:12:14.074Z,52.36
2019-03-22T09:13:14.233Z,52.12
2019-03-22T09:14:15.171Z,51.41
2019-03-22T09:15:14.079Z,51.67
2019-03-22T09:16:14.055Z,51.3
2019-03-22T09:17:14.054Z,50.57
2019-03-22T09:18:16.052Z,51.29
2019-03-22T09:19:14.056Z,51.13
2019-03-22T09:20:14.178Z,51.02
2019-03-22T09:21:14.027Z,51.74
2019-03-22T09:22:14.048Z,49.92
2019-03-22T09:23:14.080Z,49.84
2019-03-22T09:24:14.035Z,49.96
2019-03-22T09:25:14.069Z,50.39
2019-03-22T09:26:13.967Z,50.25
2019-03-22T09:27:14.077Z,50.49
2019-03-22T09:28:14.070Z,51.06
2019-03-22T09:29:14.082Z,50.46
2019-03-22T09:30:14.096Z,50.61
2019-03-22T09:31:14.033Z,50.48
2019-03-22T09:32:14.012Z,50.33
2019-03-22T09:33:14.013Z,50.17
2019-03-22T09:34:14.061Z,50.23
2019-03-22T09:35:14.073Z,50.96
2019-03-22T09:36:14.015Z,50.43
2019-03-22T09:37:13.993Z,50.1
2019-03-22T09:38:14.109Z,49.51
2019-03-22T09:39:13.968Z,49.19
2019-03-22T09:40:14.018Z,49.45
2019-03-22T09:41:14.056Z,49.75
2019-03-22T09:42:13.980Z,49.85
2019-03-22T09:43:14.030Z,49.61
2019-03-22T09:44:14.056Z,49.61
2019-03-22T09:45:14.908Z,48.36
2019-03-22T09:46:14.039Z,47.11
2019-03-22T09:47:17.089Z,47.65
2019-03-22T09:48:14.088Z,48.1
2019-03-22T09:49:13.987Z,47.65
2019-03-22T09:50:14.189Z,49.19
2019-03-22T09:51:14.117Z,48.66
2019-03-22T09:52:14.053Z,47.45
2019-03-22T09:53:14.139Z,46.3
2019-03-22T09:54:14.081Z,47.27
2019-03-22T09:55:14.885Z,45.86
2019-03-22T09:56:14.294Z,45.03
2019-03-22T09:57:14.017Z,45.81
2019-03-22T09:58:14.073Z,45.6
2019-03-22T09:59:14.077Z,44.24
2019-03-22T10:00:13.997Z,44.44
2019-03-22T10:01:24.845Z,44.12
2019-03-22T10:02:14.034Z,43.52
2019-03-22T10:03:14.087Z,44.11
2019-03-22T10:04:14.090Z,44.14
2019-03-22T10:05:14.096Z,44.85
2019-03-22T10:06:13.976Z,44.37
2019-03-22T10:07:14.036Z,44.51
2019-03-22T10:09:13.963Z,45.06
2019-03-22T10:10:14.023Z,44.59
2019-03-22T10:11:14.294Z,45.12
2019-03-22T10:12:14.315Z,45.22
2019-03-22T10:13:13.969Z,44.26
2019-03-22T10:14:14.061Z,44.32
2019-03-22T10:15:14.042Z,44.05
2019-03-22T10:16:14.053Z,43.89
2019-03-22T10:17:14.104Z,43.05
2019-03-22T10:18:13.975Z,42.59
2019-03-22T10:19:13.926Z,43.52
2019-03-22T10:20:14.014Z,44.91
2019-03-22T10:21:23.225Z,44.1
2019-03-22T10:22:13.967Z,43.33
2019-03-22T10:23:14.010Z,44.23
2019-03-22T10:24:14.055Z,42.8
2019-03-22T10:25:13.980Z,42.95
2019-03-22T10:26:13.997Z,43.58
2019-03-22T10:27:16.572Z,42.63
2019-03-22T10:28:14.171Z,42.6
2019-03-22T10:29:13.999Z,42.28
2019-03-22T10:30:14.000Z,41.46
2019-03-22T10:31:14.124Z,40.94
2019-03-22T10:32:13.987Z,42.26
2019-03-22T10:33:23.463Z,41.57
2019-03-22T10:34:13.963Z,41.73
2019-03-22T10:35:26.892Z,41.26
2019-03-22T10:36:14.017Z,42.64
2019-03-22T10:37:13.971Z,42.5
2019-03-22T10:38:32.191Z,42.49
2019-03-22T10:39:13.963Z,41.41
2019-03-22T10:40:13.973Z,42.51
2019-03-22T10:41:13.911Z,40.95
2019-03-22T10:42:14.015Z,40.84
2019-03-22T10:43:13.964Z,40.94
2019-03-22T10:44:14.027Z,41.75
2019-03-22T10:45:13.925Z,41.64
2019-03-22T10:46:13.966Z,40.55
2019-03-22T10:47:14.100Z,40.13
2019-03-22T10:48:14.127Z,40.24
2019-03-22T10:49:14.007Z,40.69
2019-03-22T10:50:14.059Z,40.33
2019-03-22T10:51:13.980Z,40.24
2019-03-22T10:52:13.947Z,40.68
2019-03-22T10:53:13.928Z,40.56
2019-03-22T10:54:13.953Z,40.08
2019-03-22T10:55:30.980Z,39.84
2019-03-22T10:56:13.870Z,39.86
2019-03-22T10:57:13.905Z,40.2
2019-03-22T10:58:21.836Z,41.81
2019-03-22T10:59:13.898Z,40.74
2019-03-22T11:00:13.915Z,40.03
2019-03-22T11:01:14.023Z,39.57
2019-03-22T11:01:27.642Z,39.22
2019-03-22T11:02:27.637Z,39.03
2019-03-22T11:03:27.728Z,38.79
2019-03-22T11:04:27.627Z,39.87
2019-03-22T11:05:27.651Z,38.88
2019-03-22T11:06:27.695Z,37.88
2019-03-22T11:07:27.624Z,38.46
2019-03-22T11:08:27.700Z,37.52
2019-03-22T11:09:27.689Z,36.75
2019-03-22T11:10:27.655Z,36.96
2019-03-22T11:11:27.623Z,36.45
2019-03-22T11:12:27.731Z,36.81
2019-03-22T11:13:27.639Z,37.55
2019-03-22T11:14:27.653Z,36.99
2019-03-22T11:15:27.629Z,36.34
2019-03-22T11:16:28.658Z,36.33
2019-03-22T11:17:27.601Z,36.51
2019-03-22T11:18:37.935Z,36.33
2019-03-22T11:19:27.659Z,35.75
2019-03-22T11:20:27.605Z,34.93
2019-03-22T11:21:27.629Z,34.87
2019-03-22T11:22:27.630Z,34.29
2019-03-22T11:23:27.655Z,35.82
2019-03-22T11:24:27.628Z,35.94
2019-03-22T11:25:27.627Z,35.67
2019-03-22T11:26:27.662Z,35.41
2019-03-22T11:27:27.599Z,35.82
2019-03-22T11:28:27.595Z,35.43
2019-03-22T11:29:27.617Z,34.75
2019-03-22T11:30:27.584Z,35.51
2019-03-22T11:31:40.456Z,36.05
2019-03-22T11:32:27.636Z,35.74
2019-03-22T11:33:27.582Z,34.23
2019-03-22T11:34:27.608Z,35.14
2019-03-22T11:35:27.590Z,35.54
2019-03-22T11:36:27.620Z,35.17
2019-03-22T11:37:27.606Z,35.3
2019-03-22T11:38:27.654Z,33.96
2019-03-22T11:39:27.592Z,33.9
2019-03-22T11:40:27.583Z,34.03
2019-03-22T11:41:27.649Z,33.79
2019-03-22T11:42:27.964Z,34.81
2019-03-22T11:43:27.575Z,34.58
2019-03-22T11:44:27.636Z,34.13
2019-03-22T11:45:27.602Z,34.71
2019-03-22T11:46:27.665Z,33.33
2019-03-22T11:47:27.597Z,33.82
2019-03-22T11:48:27.587Z,33.51
2019-03-22T11:49:27.624Z,33.46
2019-03-22T11:50:29.216Z,33.29
2019-03-22T11:51:27.572Z,33.54
2019-03-22T11:52:27.588Z,33.45
2019-03-22T11:53:27.589Z,34.13
2019-03-22T11:54:27.578Z,34.02
2019-03-22T11:55:27.582Z,33.77
2019-03-22T11:56:27.606Z,32.82
2019-03-22T11:57:27.555Z,32.63
2019-03-22T11:58:27.561Z,32.33
2019-03-22T11:59:27.587Z,32.13
2019-03-22T12:00:27.596Z,32.54
2019-03-22T12:01:27.627Z,32.72
2019-03-22T12:02:27.632Z,33.6
2019-03-22T12:03:27.560Z,32.97
2019-03-22T12:04:27.544Z,32.59
2019-03-22T12:05:27.545Z,32.03
2019-03-22T12:06:27.640Z,32.74
2019-03-22T12:07:27.558Z,33.83
2019-03-22T12:08:27.538Z,33.36
2019-03-22T12:09:27.571Z,33.46
2019-03-22T12:10:27.551Z,34.42
2019-03-22T12:11:27.630Z,34.11
2019-03-22T12:12:27.560Z,34
2019-03-22T12:13:27.535Z,33.92
2019-03-22T12:14:27.586Z,33.84
2019-03-22T12:15:27.530Z,33.06
2019-03-22T12:16:27.593Z,32.99
2019-03-22T12:17:27.576Z,33.38
2019-03-22T12:18:27.521Z,32.84
2019-03-22T12:19:27.554Z,32.75
2019-03-22T12:20:27.784Z,32.34
2019-03-22T12:21:27.611Z,32.37
2019-03-22T12:22:27.773Z,33.48
2019-03-22T12:23:27.534Z,33.2
2019-03-22T12:24:27.525Z,33.12
2019-03-22T12:25:27.531Z,32.22
2019-03-22T12:26:27.523Z,33.04
2019-03-22T12:27:37.073Z,31.39
2019-03-22T12:28:27.643Z,31.46
2019-03-22T12:29:28.443Z,32.95
2019-03-22T12:30:27.588Z,32.95
2019-03-22T12:31:27.510Z,33
2019-03-22T12:32:32.591Z,31.96
2019-03-22T12:33:27.521Z,31.41
2019-03-22T12:34:27.661Z,32.11
2019-03-22T12:35:28.122Z,32.2
2019-03-22T12:36:27.520Z,31.94
2019-03-22T12:37:27.573Z,32.38
2019-03-22T12:38:27.516Z,31.43
2019-03-22T12:39:27.526Z,31.69
2019-03-22T12:40:27.593Z,31.79
2019-03-22T12:41:27.512Z,32.51
2019-03-22T12:42:27.665Z,33.06
2019-03-22T12:43:27.528Z,32.2
2019-03-22T12:44:27.501Z,31.69
2019-03-22T12:45:27.535Z,32.67
2019-03-22T12:46:27.491Z,31.99
2019-03-22T12:47:27.509Z,31.99
2019-03-22T12:48:27.507Z,31.29
2019-03-22T12:49:27.492Z,32.21
2019-03-22T12:50:27.520Z,31.47
2019-03-22T12:51:27.497Z,30.38
2019-03-22T12:52:27.537Z,30.83
2019-03-22T12:53:27.532Z,31.29
2019-03-22T12:54:27.560Z,30.21
2019-03-22T12:55:27.541Z,30.48